Time;durP1;ratioP1;P1;durP2;ratioP2;P2;SDS_P1;SDS_P2;PMS_P1;PMS_P2;Temp;Humidity;BMP_temperature;BMP_pressure;BME280_temperature;BME280_humidity;BME280_pressure;Samples;Min_cycle;Max_cycle;Signal;HPM_P1;HPM_P2
2022/12/12 00:01:42;;;;;;;6.40;5.30;;;;;;;15.21;57.32;101126.09;6252083;22;20088;-81
2022/12/12 00:04:07;;;;;;;7.85;5.53;;;;;;;15.22;57.29;101129.56;6251623;22;19996;-80
2022/12/12 00:06:33;;;;;;;7.47;5.43;;;;;;;15.22;57.13;101129.56;6252984;22;20019;-80
2022/12/12 00:08:59;;;;;;;7.43;5.60;;;;;;;15.21;57.22;101133.03;6201517;23;20015;-80
2022/12/12 00:11:25;;;;;;;8.40;6.22;;;;;;;15.20;57.20;101124.38;6225897;23;20011;-80
2022/12/12 00:13:51;;;;;;;7.82;5.50;;;;;;;15.21;57.09;101122.66;6250932;23;20432;-81
2022/12/12 00:16:17;;;;;;;7.47;5.65;;;;;;;15.22;57.23;101124.38;6252312;22;20020;-81
2022/12/12 00:18:43;;;;;;;7.78;5.47;;;;;;;15.21;57.15;101122.66;6224385;23;20015;-80
2022/12/12 00:21:14;;;;;;;8.60;5.50;;;;;;;15.21;56.95;101136.47;6252262;23;20425;-81
2022/12/12 00:23:40;;;;;;;6.95;5.50;;;;;;;15.21;57.05;101136.47;6253369;22;20050;-80
2022/12/12 00:26:12;;;;;;;6.32;5.30;;;;;;;15.20;57.17;101134.75;6251035;23;20028;-81
2022/12/12 00:28:38;;;;;;;6.50;4.82;;;;;;;15.21;57.62;101139.06;6251880;23;20042;-81
2022/12/12 00:31:03;;;;;;;6.07;4.95;;;;;;;15.21;57.70;101148.56;6253471;22;20083;-81
2022/12/12 00:33:29;;;;;;;6.68;4.97;;;;;;;15.22;57.74;101140.81;6254385;23;20004;-81
2022/12/12 00:35:54;;;;;;;5.72;4.38;;;;;;;15.23;57.81;101139.09;6262397;23;20008;-81
2022/12/12 00:38:22;;;;;;;5.85;4.75;;;;;;;15.23;57.85;101139.94;6252690;23;20019;-81
2022/12/12 00:40:48;;;;;;;5.70;4.60;;;;;;;15.22;58.10;101137.34;6252842;23;20425;-81
2022/12/12 00:43:14;;;;;;;6.00;4.72;;;;;;;15.23;57.80;101142.53;6260712;23;19996;-81
2022/12/12 00:45:39;;;;;;;6.20;4.90;;;;;;;15.22;57.89;101134.75;6267183;22;20031;-80
2022/12/12 00:48:06;;;;;;;5.20;4.50;;;;;;;15.23;57.83;101141.69;6231346;23;20040;-80
2022/12/12 00:50:32;;;;;;;5.13;4.25;;;;;;;15.25;57.93;101133.91;6264468;22;20053;-81
2022/12/12 00:52:58;;;;;;;5.85;4.40;;;;;;;15.23;57.71;101132.16;6266146;23;20008;-81
2022/12/12 00:55:24;;;;;;;5.65;4.43;;;;;;;15.23;57.61;101139.94;6227448;23;20014;-80
2022/12/12 00:57:49;;;;;;;5.95;4.05;;;;;;;15.22;57.63;101140.81;6225983;23;20030;-80
2022/12/12 01:00:15;;;;;;;6.25;4.38;;;;;;;15.22;57.86;101139.94;6250380;23;20008;-80
2022/12/12 01:02:41;;;;;;;5.47;4.40;;;;;;;15.23;57.75;101141.69;6250563;23;20325;-80
2022/12/12 01:05:06;;;;;;;5.75;4.82;;;;;;;15.23;57.52;101147.72;6252201;23;20002;-80
2022/12/12 01:07:32;;;;;;;5.70;4.57;;;;;;;15.21;57.62;101144.25;6254036;22;20039;-81
2022/12/12 01:09:57;;;;;;;5.32;4.10;;;;;;;15.21;57.32;101139.06;6250699;23;20004;-80
2022/12/12 01:12:23;;;;;;;6.30;4.68;;;;;;;15.21;57.25;101136.47;6250498;23;20075;-80
2022/12/12 01:14:48;;;;;;;6.60;4.47;;;;;;;15.22;57.31;101143.41;6251255;23;20014;-80
2022/12/12 01:17:14;;;;;;;5.97;4.60;;;;;;;15.22;57.17;101143.41;6250701;23;20099;-80
2022/12/12 01:19:39;;;;;;;6.45;4.40;;;;;;;15.22;57.21;101147.69;6250688;23;20091;-80
2022/12/12 01:22:04;;;;;;;5.43;4.68;;;;;;;15.19;57.22;101145.97;6252753;22;20016;-81
2022/12/12 01:24:30;;;;;;;5.22;4.32;;;;;;;15.22;57.10;101147.69;6251665;23;20011;-80
2022/12/12 01:26:55;;;;;;;6.30;4.72;;;;;;;15.21;57.33;101149.44;6205398;22;20019;-80
2022/12/12 01:29:21;;;;;;;6.50;4.75;;;;;;;15.22;57.23;101164.16;6231276;22;20012;-81
2022/12/12 01:31:46;;;;;;;4.97;4.30;;;;;;;15.21;56.75;101158.94;6205844;22;20309;-80
2022/12/12 01:34:11;;;;;;;5.70;4.50;;;;;;;15.21;56.90;101156.34;6230946;22;20027;-80
2022/12/12 01:36:37;;;;;;;4.97;4.30;;;;;;;15.21;57.13;101157.22;6230827;22;20011;-81
2022/12/12 01:39:03;;;;;;;6.13;4.60;;;;;;;15.20;56.84;101157.22;6255998;22;20011;-81
2022/12/12 01:41:28;;;;;;;5.05;4.38;;;;;;;15.22;56.92;101163.25;6232192;22;20035;-80
2022/12/12 01:43:54;;;;;;;5.07;4.57;;;;;;;15.20;56.79;101157.22;6282755;22;20004;-80
2022/12/12 01:46:42;;;;;;;5.90;4.70;;;;;;;15.21;56.90;101161.53;6231730;22;20015;-80
2022/12/12 01:49:14;;;;;;;4.93;4.32;;;;;;;15.20;56.71;101159.81;6285097;22;20007;-80
2022/12/12 01:51:41;;;;;;;6.30;4.78;;;;;;;15.20;56.75;101162.41;6286368;22;20004;-80
2022/12/12 01:54:12;;;;;;;4.70;4.15;;;;;;;15.19;56.64;101158.94;6284046;22;20087;-80
2022/12/12 01:56:40;;;;;;;5.20;3.97;;;;;;;15.20;56.84;101162.41;6266675;22;20451;-80
2022/12/12 01:59:07;;;;;;;5.38;4.35;;;;;;;15.20;56.61;101165.00;6257604;22;20008;-80
2022/12/12 02:01:33;;;;;;;5.22;4.32;;;;;;;15.20;56.90;101170.19;6269543;22;19988;-80
2022/12/12 02:04:01;;;;;;;5.13;4.32;;;;;;;15.20;56.59;101165.00;6271489;22;20320;-80
2022/12/12 02:06:28;;;;;;;4.57;4.03;;;;;;;15.20;56.72;101159.81;6272212;22;20007;-81
2022/12/12 02:08:58;;;;;;;5.25;4.22;;;;;;;15.19;56.93;101163.25;6270474;22;20066;-80
2022/12/12 02:11:29;;;;;;;5.45;4.60;;;;;;;15.18;56.75;101161.53;6260246;22;20000;-80
2022/12/12 02:13:56;;;;;;;5.03;4.35;;;;;;;15.19;56.65;101179.66;6263526;22;20059;-81
2022/12/12 02:16:44;;;;;;;6.45;4.57;;;;;;;15.19;56.35;101178.81;6263186;22;20072;-80
2022/12/12 02:19:12;;;;;;;5.30;4.22;;;;;;;15.19;56.65;101176.22;6256190;22;20057;-80
2022/12/12 02:21:46;;;;;;;5.72;4.68;;;;;;;15.19;56.76;101177.06;6257934;22;20015;-81
2022/12/12 02:24:32;;;;;;;5.32;4.40;;;;;;;15.18;56.16;101177.09;6271268;22;20000;-80
2022/12/12 02:27:09;;;;;;;5.38;4.13;;;;;;;15.19;56.49;101189.19;6265698;22;20038;-81
2022/12/12 02:29:56;;;;;;;5.20;4.07;;;;;;;15.19;56.34;101191.78;6258005;22;20328;-80
2022/12/12 02:32:50;;;;;;;5.65;3.90;;;;;;;15.19;56.60;101184.00;6255793;22;20003;-80
2022/12/12 02:35:15;;;;;;;5.72;4.53;;;;;;;15.19;56.46;101186.59;6256094;22;20017;-80
2022/12/12 02:37:55;;;;;;;5.93;4.43;;;;;;;15.18;56.20;101190.91;6255925;22;20050;-81
2022/12/12 02:40:24;;;;;;;4.60;3.75;;;;;;;15.18;56.58;101188.31;6254951;22;20039;-80
2022/12/12 02:42:56;;;;;;;5.65;4.57;;;;;;;15.18;56.43;101185.72;6254431;22;20077;-80
2022/12/12 02:45:48;;;;;;;4.70;3.97;;;;;;;15.17;56.24;101190.91;6255420;22;20000;-80
2022/12/12 02:48:25;;;;;;;5.25;3.97;;;;;;;15.16;56.57;101184.84;6242490;22;20337;-81
2022/12/12 02:50:53;;;;;;;5.30;4.32;;;;;;;15.18;56.37;101193.50;6282776;22;20075;-80
2022/12/12 02:53:20;;;;;;;4.85;4.00;;;;;;;15.18;56.29;101198.69;6268281;22;20030;-80
2022/12/12 02:55:46;;;;;;;4.85;3.80;;;;;;;15.17;56.34;101193.50;6257379;22;20068;-80
2022/12/12 02:58:12;;;;;;;5.00;4.03;;;;;;;15.17;56.53;101196.06;6255239;22;20004;-80
2022/12/12 03:01:16;;;;;;;4.18;3.60;;;;;;;15.17;56.62;101190.91;6231033;22;20057;-81
2022/12/12 03:09:31;;;;;;;4.35;3.60;;;;;;;15.18;56.79;101183.13;6280556;22;20022;-80
2022/12/12 03:12:34;;;;;;;4.20;3.42;;;;;;;15.20;56.88;101188.34;6254204;22;20004;-80
2022/12/12 03:15:22;;;;;;;4.60;3.60;;;;;;;15.20;56.84;101191.78;6239132;22;20007;-80
2022/12/12 03:17:59;;;;;;;6.20;3.80;;;;;;;15.19;57.14;101187.44;6281747;22;20032;-80
2022/12/12 03:20:31;;;;;;;5.70;4.00;;;;;;;15.20;57.06;101189.19;6255031;22;20014;-80
2022/12/12 03:23:03;;;;;;;5.32;3.80;;;;;;;15.19;57.10;101184.84;6254864;22;20004;-80
2022/12/12 03:25:43;;;;;;;4.53;3.78;;;;;;;15.20;56.91;101194.38;6255897;22;20317;-81
2022/12/12 03:28:16;;;;;;;4.43;3.47;;;;;;;15.19;56.69;101190.03;6260200;22;20020;-81
2022/12/12 03:30:45;;;;;;;4.00;3.42;;;;;;;15.20;57.04;101193.53;6272382;22;20007;-81
2022/12/12 03:33:24;;;;;;;4.38;3.95;;;;;;;15.18;56.71;101192.66;6266291;22;20004;-81
2022/12/12 03:35:58;;;;;;;4.50;3.55;;;;;;;15.19;56.99;101199.56;6291901;22;19999;-81
2022/12/12 03:38:25;;;;;;;;;;;;;;;15.19;56.80;101200.41;6272025;22;20027;-81
2022/12/12 03:40:57;;;;;;;4.93;3.80;;;;;;;15.20;56.69;101198.72;6260010;22;20235;-81
2022/12/12 03:43:29;;;;;;;4.10;3.60;;;;;;;15.18;56.46;101197.84;6285478;22;19995;-81
2022/12/12 03:46:02;;;;;;;4.60;3.60;;;;;;;15.18;56.53;101195.25;6285121;22;20006;-81
2022/12/12 03:48:30;;;;;;;4.20;3.80;;;;;;;15.19;56.43;101197.81;6256515;22;20031;-81
2022/12/12 03:51:09;;;;;;;4.35;3.88;;;;;;;15.18;56.53;101198.69;6256464;22;20062;-81
2022/12/12 03:53:50;;;;;;;5.18;3.83;;;;;;;15.17;56.36;101194.34;6255174;22;20008;-81
2022/12/12 03:56:44;;;;;;;4.30;3.63;;;;;;;15.17;56.70;101199.53;6257968;22;20008;-81
2022/12/12 03:59:33;;;;;;;;;;;;;;;15.18;56.44;101203.88;6284960;22;19992;-80
2022/12/12 04:02:07;;;;;;;5.38;3.90;;;;;;;15.16;56.28;101200.41;6242814;22;19931;-81
2022/12/12 04:04:44;;;;;;;4.63;3.70;;;;;;;15.18;56.97;101209.06;6259228;22;20000;-80
2022/12/12 04:07:32;;;;;;;5.13;3.78;;;;;;;15.16;56.66;101200.41;6259194;22;20424;-80
2022/12/12 04:13:07;;;;;;;4.32;3.78;;;;;;;15.17;56.42;101203.84;6270571;22;20067;-81
2022/12/12 04:16:03;;;;;;;4.35;3.95;;;;;;;15.17;56.32;101202.13;6263594;22;20010;-81
2022/12/12 04:18:40;;;;;;;4.40;3.75;;;;;;;15.15;56.26;101206.44;6258980;22;20019;-81
2022/12/12 04:24:42;;;;;;;5.25;3.53;;;;;;;15.15;56.15;101219.38;6287101;22;20015;-81
2022/12/12 04:27:23;;;;;;;4.80;3.50;;;;;;;15.15;56.18;101218.53;6255076;23;20016;-81
2022/12/12 04:30:10;;;;;;;4.90;3.92;;;;;;;15.14;56.19;101228.03;6254779;23;20004;-81
2022/12/12 04:32:43;;;;;;;4.43;3.97;;;;;;;15.14;56.19;101211.63;6254913;23;20004;-81
2022/12/12 04:35:09;;;;;;;4.55;4.03;;;;;;;15.14;56.18;101217.66;6252685;23;20400;-80
2022/12/12 04:37:49;;;;;;;4.68;3.83;;;;;;;15.15;56.26;101219.38;6254709;23;20011;-81
2022/12/12 04:40:24;;;;;;;4.95;3.92;;;;;;;15.15;56.05;101223.72;6253513;23;20062;-81
2022/12/12 04:43:02;;;;;;;5.07;4.07;;;;;;;15.14;55.90;101217.66;6253798;23;20000;-81
2022/12/12 04:45:33;;;;;;;4.22;3.45;;;;;;;15.13;56.15;101221.09;6253360;23;20008;-81
2022/12/12 04:48:00;;;;;;;5.93;4.25;;;;;;;15.13;56.04;101223.69;6254273;23;20004;-81
2022/12/12 04:50:29;;;;;;;4.63;3.67;;;;;;;15.12;55.94;101224.56;6256723;22;20011;-81
2022/12/12 04:53:03;;;;;;;4.78;3.63;;;;;;;15.12;55.94;101221.97;6257391;22;20004;-80
2022/12/12 04:55:33;;;;;;;5.38;4.22;;;;;;;15.11;55.85;101228.03;6253923;23;20016;-81
2022/12/12 04:58:00;;;;;;;4.90;4.03;;;;;;;15.13;55.90;101228.03;6252653;23;20049;-80
2022/12/12 05:00:31;;;;;;;6.07;3.97;;;;;;;15.11;55.91;101225.44;6252540;23;20480;-81
2022/12/12 05:03:10;;;;;;;4.97;3.63;;;;;;;15.12;55.85;101228.88;6254007;23;20000;-81
2022/12/12 05:05:43;;;;;;;5.38;4.00;;;;;;;15.12;56.18;101228.88;6267315;23;20004;-81
2022/12/12 05:08:27;;;;;;;3.95;3.28;;;;;;;15.13;56.09;101225.44;6270845;23;20000;-82
2022/12/12 05:10:54;;;;;;;;;;;;;;;15.13;56.36;101220.25;6265128;23;20147;-82
2022/12/12 05:13:22;;;;;;;4.15;3.40;;;;;;;15.12;56.39;101218.53;6256933;23;20308;-81
2022/12/12 05:15:51;;;;;;;3.53;3.22;;;;;;;15.14;56.48;101227.19;6255038;23;20000;-81
2022/12/12 05:18:16;;;;;;;3.95;3.53;;;;;;;15.12;56.55;101227.16;6254073;22;20067;-81
2022/12/12 05:20:43;;;;;;;4.03;3.55;;;;;;;15.14;56.69;101229.78;6255880;22;20008;-81
2022/12/12 05:23:08;;;;;;;6.68;3.63;;;;;;;15.14;56.47;101230.63;6256044;22;20320;-81
2022/12/12 05:25:34;;;;;;;4.40;3.70;;;;;;;15.13;56.44;101228.88;6229395;23;20004;-81
2022/12/12 05:27:59;;;;;;;4.20;3.25;;;;;;;15.14;56.44;101227.19;6258255;23;20020;-82
2022/12/12 05:30:26;;;;;;;3.50;2.95;;;;;;;15.15;56.48;101232.34;6257456;23;20010;-81
2022/12/12 05:32:51;;;;;;;5.10;3.60;;;;;;;15.11;56.48;101233.22;6264925;22;20071;-80
2022/12/12 05:35:17;;;;;;;4.75;3.60;;;;;;;15.12;56.55;101232.34;6263221;23;20490;-81
2022/12/12 05:37:43;;;;;;;3.70;3.30;;;;;;;15.13;56.57;101231.47;6257466;23;20006;-82
2022/12/12 05:40:12;;;;;;;4.72;3.80;;;;;;;15.12;56.48;101232.34;6258705;22;20031;-82
2022/12/12 05:42:40;;;;;;;5.30;3.75;;;;;;;15.10;56.41;101234.06;6259181;23;20007;-82
2022/12/12 05:45:07;;;;;;;4.40;3.78;;;;;;;15.11;56.44;101232.31;6260594;23;20000;-81
2022/12/12 05:47:32;;;;;;;4.00;3.50;;;;;;;15.10;56.11;101228.88;6253222;22;20034;-80
2022/12/12 05:49:58;;;;;;;4.65;3.40;;;;;;;15.11;56.26;101228.03;6253472;22;20360;-81
2022/12/12 05:52:24;;;;;;;6.70;4.00;;;;;;;15.12;56.41;101234.06;6252991;22;20000;-81
2022/12/12 05:54:52;;;;;;;4.70;4.00;;;;;;;15.09;56.24;101234.94;6230737;23;20034;-81
2022/12/12 06:03:32;;;;;;;6.43;4.05;;;;;;;15.08;56.09;101240.09;6332460;22;20041;-83
2022/12/12 06:06:18;;;;;;;4.57;3.90;;;;;;;15.10;56.29;101253.94;6305792;22;20042;-82
2022/12/12 06:08:44;;;;;;;5.32;4.18;;;;;;;15.10;56.31;101251.34;6317049;22;20010;-81
2022/12/12 06:13:53;;;;;;;6.90;3.97;;;;;;;15.09;56.01;101249.59;6257221;22;20020;-84
2022/12/12 06:22:27;;;;;;;5.20;3.80;;;;;;;15.07;56.20;101262.56;6291769;22;20050;-84
2022/12/12 06:38:49;;;;;;;5.10;3.78;;;;;;;15.10;56.57;101270.34;6261032;22;20004;-84
2022/12/12 06:41:28;;;;;;;5.43;3.83;;;;;;;15.12;56.71;101271.22;6267458;22;20022;-83
2022/12/12 07:02:11;;;;;;;8.27;4.40;;;;;;;15.14;57.02;101273.84;6335762;22;20022;-86
2022/12/12 07:08:16;;;;;;;9.35;4.63;;;;;;;15.16;56.83;101288.53;6261075;22;20018;-86
2022/12/12 07:40:22;;;;;;;6.28;4.18;;;;;;;15.15;56.71;101298.91;6283108;22;20034;-84
2022/12/12 07:42:56;;;;;;;7.00;4.43;;;;;;;15.16;56.68;101300.66;6333878;22;19996;-82
2022/12/12 07:45:21;;;;;;;7.97;4.68;;;;;;;15.18;56.76;101310.16;6277841;22;20011;-87
2022/12/12 07:51:32;;;;;;;6.78;4.32;;;;;;;15.15;56.87;101310.13;6300399;22;20538;-84
2022/12/12 07:58:04;;;;;;;6.25;4.68;;;;;;;15.16;56.57;101319.66;6336031;22;20024;-85
2022/12/12 08:00:30;;;;;;;6.97;4.70;;;;;;;15.17;56.51;101317.91;6308165;22;20003;-84
2022/12/12 08:03:34;;;;;;;6.25;4.47;;;;;;;15.15;56.36;101320.50;6283638;22;20006;-84
2022/12/12 08:14:55;;;;;;;6.97;4.88;;;;;;;15.16;56.23;101323.97;6293287;22;20015;-85
2022/12/12 08:17:27;;;;;;;6.63;4.72;;;;;;;15.16;56.02;101324.84;6301736;22;20034;-84
2022/12/12 08:23:59;;;;;;;6.88;4.85;;;;;;;15.18;56.15;101336.09;6304772;22;20052;-83
2022/12/12 08:27:07;;;;;;;6.32;4.50;;;;;;;15.17;55.89;101323.97;6303438;22;20004;-87
2022/12/12 08:33:00;;;;;;;7.75;5.22;;;;;;;15.15;55.93;101330.88;6306824;22;20042;-85
2022/12/12 08:47:47;;;;;;;6.05;5.30;;;;;;;15.22;55.22;101344.75;6243789;23;20100;-84
2022/12/12 08:50:13;;;;;;;5.88;4.72;;;;;;;15.21;55.19;101345.63;6213871;23;20017;-82
2022/12/12 08:52:50;;;;;;;5.35;4.38;;;;;;;15.23;55.28;101341.31;6236175;23;20012;-87
2022/12/12 08:55:38;;;;;;;6.57;4.90;;;;;;;15.23;55.47;101343.91;6239549;23;19993;-86
2022/12/12 08:58:06;;;;;;;6.10;4.82;;;;;;;15.23;55.20;101342.16;6159764;23;20036;-86
2022/12/12 09:21:04;;;;;;;7.30;5.07;;;;;;;15.25;54.65;101349.13;6299290;22;19946;-83
2022/12/12 09:29:41;;;;;;;8.23;4.40;;;;;;;15.30;55.01;101348.28;6276137;22;20023;-79
2022/12/12 09:32:08;;;;;;;5.30;4.28;;;;;;;15.33;55.13;101347.44;6264298;22;20042;-81
2022/12/12 09:34:37;;;;;;;7.18;4.85;;;;;;;15.37;55.11;101342.31;6286193;22;20309;-80
2022/12/12 09:37:04;;;;;;;6.93;4.20;;;;;;;15.41;54.96;101343.19;6282540;22;20000;-79
2022/12/12 09:39:29;;;;;;;8.07;4.43;;;;;;;15.43;55.05;101342.31;6283951;22;20004;-81
2022/12/12 09:41:55;;;;;;;9.15;4.20;;;;;;;15.44;55.17;101345.81;6287553;22;20008;-80
2022/12/12 09:44:23;;;;;;;6.25;4.20;;;;;;;15.45;55.31;101344.06;6281068;22;20007;-80
2022/12/12 09:46:54;;;;;;;5.07;4.15;;;;;;;15.46;55.18;101338.00;6283092;22;20103;-81
2022/12/12 09:49:41;;;;;;;6.57;3.92;;;;;;;15.49;55.15;101343.25;6292854;22;20000;-83
2022/12/12 09:52:12;;;;;;;6.07;4.05;;;;;;;15.50;55.18;101344.97;6291112;22;19988;-81
2022/12/12 09:54:37;;;;;;;7.53;4.00;;;;;;;15.52;55.08;101343.25;6285341;22;20004;-81
2022/12/12 09:57:23;;;;;;;4.82;4.00;;;;;;;15.52;55.20;101338.94;6265987;22;20059;-81
2022/12/12 10:00:03;;;;;;;6.22;4.03;;;;;;;15.52;55.03;101340.66;6288115;22;20056;-80
2022/12/12 10:02:31;;;;;;;6.47;4.25;;;;;;;15.53;55.04;101345.00;6282691;22;20011;-80
2022/12/12 10:04:59;;;;;;;5.25;4.05;;;;;;;15.53;55.14;101350.19;6280069;22;20011;-80
2022/12/12 10:07:51;;;;;;;6.90;4.30;;;;;;;15.53;55.19;101347.59;6281171;22;20416;-80
2022/12/12 10:10:37;;;;;;;7.30;4.07;;;;;;;15.54;55.28;101346.72;6279676;22;20007;-81
2022/12/12 10:13:05;;;;;;;6.25;4.53;;;;;;;15.51;55.40;101342.41;6285134;22;20007;-81
2022/12/12 10:15:38;;;;;;;6.85;4.47;;;;;;;15.54;55.30;101351.91;6284522;22;20000;-81
2022/12/12 10:18:10;;;;;;;9.82;4.68;;;;;;;15.51;55.16;101350.19;6281825;22;20000;-81
2022/12/12 10:20:44;;;;;;;8.00;4.25;;;;;;;15.53;55.36;101343.28;6280844;22;20000;-81
2022/12/12 10:23:15;;;;;;;7.18;4.45;;;;;;;15.61;54.79;101341.63;6282657;22;20078;-79
2022/12/12 10:25:53;;;;;;;7.25;4.05;;;;;;;15.54;54.89;101331.16;6287759;22;20003;-82
2022/12/12 10:28:20;;;;;;;6.47;4.40;;;;;;;15.53;54.89;101342.41;6297739;22;20038;-83
2022/12/12 10:31:01;;;;;;;7.63;5.00;;;;;;;15.51;55.03;101342.41;6297864;22;19990;-83
2022/12/12 10:33:54;;;;;;;7.82;4.15;;;;;;;15.51;54.79;101338.94;6299336;22;20071;-83
2022/12/12 10:36:29;;;;;;;7.45;4.35;;;;;;;15.50;55.05;101332.00;6297201;22;20016;-83
2022/12/12 10:39:00;;;;;;;5.93;4.35;;;;;;;15.50;54.85;101332.00;6293121;22;20014;-82
2022/12/12 10:41:45;;;;;;;5.82;3.95;;;;;;;15.49;54.86;101328.53;6293211;22;20000;-83
2022/12/12 10:44:39;;;;;;;9.52;4.43;;;;;;;15.50;54.72;101324.22;6287025;22;20392;-82
2022/12/12 10:47:10;;;;;;;6.53;4.50;;;;;;;15.50;54.79;101324.22;6252451;22;20003;-82
2022/12/12 10:49:36;;;;;;;8.07;4.65;;;;;;;15.50;54.76;101326.81;6287697;22;20387;-82
2022/12/12 10:52:22;;;;;;;6.38;4.35;;;;;;;15.50;54.84;101322.47;6264078;22;20067;-83
2022/12/12 10:54:51;;;;;;;5.40;4.40;;;;;;;15.50;54.64;101319.03;6291360;22;20007;-82
2022/12/12 10:57:30;;;;;;;8.15;4.35;;;;;;;15.49;54.62;101320.75;6288305;22;20003;-82
2022/12/12 10:59:57;;;;;;;6.25;4.13;;;;;;;15.51;54.43;101318.19;6287604;22;20021;-83
2022/12/12 11:02:36;;;;;;;6.20;4.45;;;;;;;15.52;54.65;101317.31;6269258;22;20094;-83
2022/12/12 11:05:22;;;;;;;5.97;4.57;;;;;;;15.52;54.56;101320.78;6290127;22;20010;-82
2022/12/12 11:07:57;;;;;;;6.28;4.88;;;;;;;15.52;54.41;101309.53;6294036;22;20003;-83
2022/12/12 11:10:36;;;;;;;5.38;4.13;;;;;;;15.52;54.45;101304.34;6292919;22;20031;-82
2022/12/12 11:13:14;;;;;;;5.30;4.32;;;;;;;15.53;54.39;101311.28;6289999;22;20032;-82
2022/12/12 11:15:50;;;;;;;5.20;3.97;;;;;;;15.53;54.49;101306.09;6288822;22;20026;-82
2022/12/12 11:18:19;;;;;;;4.93;4.25;;;;;;;15.52;54.49;101312.13;6292558;22;20000;-83
2022/12/12 11:21:00;;;;;;;5.40;4.07;;;;;;;15.53;54.65;101308.69;6286532;22;20030;-82
2022/12/12 11:23:28;;;;;;;4.53;4.03;;;;;;;15.55;54.39;101304.38;6283463;22;20328;-82
2022/12/12 11:26:00;;;;;;;4.93;3.88;;;;;;;15.57;54.47;101313.00;6288335;22;20003;-85
2022/12/12 11:28:35;;;;;;;5.15;4.07;;;;;;;15.59;54.51;101309.59;6286064;22;20026;-82
2022/12/12 11:31:06;;;;;;;6.15;4.22;;;;;;;15.63;54.38;101307.88;6288879;22;20004;-82
2022/12/12 11:33:36;;;;;;;6.50;4.80;;;;;;;15.64;54.32;101302.69;6286334;22;20012;-83
2022/12/12 11:36:12;;;;;;;9.05;4.30;;;;;;;15.69;54.18;101307.06;6291465;22;20015;-83
2022/12/12 11:42:38;;;;;;;5.00;4.00;;;;;;;15.67;54.60;101304.44;6295008;22;20038;-83
2022/12/12 11:47:47;;;;;;;31.75;10.95;;;;;;;15.00;54.27;101313.47;6256665;22;20010;-82
2022/12/12 11:57:58;;;;;;;6.20;4.57;;;;;;;15.71;55.91;101295.84;6243329;22;20011;-85
2022/12/12 12:04:26;;;;;;;7.82;4.68;;;;;;;15.63;55.24;101305.28;6306500;22;20075;-83
2022/12/12 12:19:05;;;;;;;5.47;4.10;;;;;;;15.56;55.60;101301.78;6279800;22;20011;-85
2022/12/12 12:25:14;;;;;;;6.90;4.30;;;;;;;15.55;55.79;101301.78;6269293;22;20035;-82
2022/12/12 12:28:18;;;;;;;6.60;3.80;;;;;;;15.54;55.86;101295.72;6279595;22;20019;-86
2022/12/12 12:31:35;;;;;;;5.93;4.10;;;;;;;15.53;55.91;101296.59;6266426;22;20471;-86
2022/12/12 12:34:42;;;;;;;4.65;3.63;;;;;;;15.54;55.88;101300.03;6182555;23;20021;-85
2022/12/12 12:41:09;;;;;;;6.40;4.13;;;;;;;15.53;56.20;101294.00;6184053;23;20037;-84
2022/12/12 12:47:31;;;;;;;4.95;3.78;;;;;;;15.52;56.29;101287.06;6181475;23;20033;-83
2022/12/12 12:50:26;;;;;;;5.75;3.58;;;;;;;15.52;56.14;101283.59;6152606;23;20020;-83
2022/12/12 12:53:33;;;;;;;5.22;3.78;;;;;;;15.52;56.47;101286.19;6174753;23;20077;-84
2022/12/12 12:56:34;;;;;;;4.50;3.65;;;;;;;15.51;56.37;101282.75;6147668;23;20043;-83
2022/12/12 12:59:16;;;;;;;5.78;3.75;;;;;;;15.51;56.52;101293.13;6090810;23;19994;-84
2022/12/12 13:02:01;;;;;;;5.03;3.85;;;;;;;15.51;56.53;101287.06;6067183;23;20011;-83
2022/12/12 13:04:54;;;;;;;5.47;3.80;;;;;;;15.51;56.62;101287.94;6087069;23;20046;-83
2022/12/12 13:08:13;;;;;;;5.50;3.90;;;;;;;15.51;56.44;101277.53;6035732;23;20034;-83
2022/12/12 13:10:46;;;;;;;5.07;3.47;;;;;;;15.51;56.48;101281.88;6122958;23;19987;-85
2022/12/12 13:13:31;;;;;;;4.82;3.88;;;;;;;15.51;56.46;101281.88;6122914;23;20021;-83
2022/12/12 13:16:25;;;;;;;4.40;3.63;;;;;;;15.49;56.75;101283.59;6099528;23;19994;-83
2022/12/12 13:35:58;;;;;;;5.10;3.83;;;;;;;15.49;57.02;101289.63;6265021;22;20007;-84
2022/12/12 13:57:26;;;;;;;5.28;3.78;;;;;;;15.44;57.10;101293.94;6252030;22;20010;-86
2022/12/12 14:24:27;;;;;;;4.55;3.70;;;;;;;15.46;56.76;101288.75;6294314;22;20014;-85
2022/12/12 14:27:09;;;;;;;6.88;3.63;;;;;;;15.43;56.82;101287.00;6301374;22;20020;-86
2022/12/12 15:11:28;;;;;;;5.38;4.07;;;;;;;15.30;56.96;101317.16;6256822;22;20025;-85
2022/12/12 15:15:06;;;;;;;4.60;3.50;;;;;;;15.32;57.08;101323.22;6303531;22;20027;-83
2022/12/12 15:20:35;;;;;;;4.38;3.90;;;;;;;15.28;57.01;101307.63;6282943;22;20037;-84
2022/12/12 15:30:55;;;;;;;6.05;3.58;;;;;;;15.28;56.99;101336.16;6278750;22;20031;-84
2022/12/12 15:36:50;;;;;;;4.45;3.67;;;;;;;15.25;57.08;101334.41;6307185;22;20006;-86
2022/12/12 15:52:59;;;;;;;4.65;3.58;;;;;;;15.25;57.03;101352.56;6306927;22;20014;-83
2022/12/12 16:01:58;;;;;;;3.95;3.55;;;;;;;15.23;57.32;101346.50;6271454;22;20025;-84
2022/12/12 16:11:30;;;;;;;5.15;3.40;;;;;;;15.23;57.06;101349.94;6304330;22;20019;-82
2022/12/12 16:51:15;;;;;;;5.25;3.13;;;;;;;15.34;57.56;101339.66;6275617;22;20027;-81
2022/12/12 16:55:01;;;;;;;4.53;3.50;;;;;;;15.29;57.42;101336.19;6275294;22;20005;-82
2022/12/12 17:30:49;;;;;;;4.60;3.80;;;;;;;15.16;56.99;101337.81;6206517;22;20813;31
2022/12/12 17:40:13;;;;;;;4.97;4.13;;;;;;;15.10;56.89;101337.75;6290419;22;20021;-82
2022/12/12 17:45:25;;;;;;;6.10;3.92;;;;;;;15.13;56.97;101344.66;6244760;22;20219;31
2022/12/12 17:59:09;;;;;;;5.45;4.10;;;;;;;15.13;57.29;101353.31;6229874;22;20027;-82
2022/12/12 18:01:57;;;;;;;5.20;3.72;;;;;;;15.17;57.28;101347.31;6212575;23;19997;-81
2022/12/12 18:04:23;;;;;;;4.47;3.67;;;;;;;15.19;57.41;101355.09;6175370;23;20008;-80
2022/12/12 18:06:49;;;;;;;4.30;3.60;;;;;;;15.18;57.33;101348.19;6164720;23;20015;-80
2022/12/12 18:09:15;;;;;;;5.22;4.10;;;;;;;15.18;57.44;101354.25;6168193;23;19985;-81
2022/12/12 18:11:42;;;;;;;6.55;3.70;;;;;;;15.17;57.45;101349.91;6178598;23;20001;-81
2022/12/12 18:14:14;;;;;;;5.78;3.80;;;;;;;15.15;57.76;101345.56;6150248;23;20013;-82
2022/12/12 18:16:41;;;;;;;8.05;3.90;;;;;;;15.15;57.71;101345.56;6181840;23;19985;-81
2022/12/12 18:19:07;;;;;;;5.97;4.20;;;;;;;15.16;57.70;101339.53;6182467;23;20005;-81
2022/12/12 18:21:40;;;;;;;4.65;3.83;;;;;;;15.17;57.77;101339.53;6180208;23;20001;-81
2022/12/12 18:24:06;;;;;;;5.57;4.00;;;;;;;15.15;57.83;101341.22;6199769;23;20005;-81
2022/12/12 18:26:32;;;;;;;7.05;4.03;;;;;;;15.16;57.86;101342.13;6178234;23;20016;-82
2022/12/12 18:29:12;;;;;;;4.85;3.88;;;;;;;15.16;57.54;101345.56;6182041;23;20056;-82
2022/12/12 18:31:38;;;;;;;8.60;4.35;;;;;;;15.17;57.91;101357.66;6204558;23;20000;-81
2022/12/12 18:34:05;;;;;;;6.43;4.38;;;;;;;15.16;57.71;101352.50;6141801;23;20013;-81
2022/12/12 18:36:30;;;;;;;4.80;4.07;;;;;;;15.17;57.76;101354.22;6168510;23;20334;-81
2022/12/12 18:38:58;;;;;;;5.30;4.28;;;;;;;15.14;57.69;101352.47;6190182;23;20001;-80
2022/12/12 18:41:25;;;;;;;6.05;4.13;;;;;;;15.15;57.84;101353.34;6192055;23;20001;-81
2022/12/12 18:43:50;;;;;;;5.10;4.30;;;;;;;15.16;57.95;101349.91;6192457;23;20001;-80
2022/12/12 18:46:18;;;;;;;6.13;4.15;;;;;;;15.13;57.83;101350.72;6141880;23;20096;-80
2022/12/12 18:48:46;;;;;;;6.00;4.07;;;;;;;15.12;57.77;101345.53;6136037;23;20044;-81
2022/12/12 18:51:14;;;;;;;6.38;4.53;;;;;;;15.13;57.89;101350.72;6163207;23;20016;-81
2022/12/12 18:53:40;;;;;;;5.47;4.20;;;;;;;15.12;57.71;101350.72;6166697;23;19997;-81
2022/12/12 18:56:11;;;;;;;5.10;4.07;;;;;;;15.11;57.55;101356.75;6143280;23;20096;-82
2022/12/12 18:58:36;;;;;;;5.15;3.97;;;;;;;15.05;58.58;101356.69;6152428;23;20028;-81
2022/12/12 19:01:07;;;;;;;5.05;4.20;;;;;;;14.98;58.27;101358.34;6204440;23;20009;-81
2022/12/12 19:03:36;;;;;;;6.28;4.88;;;;;;;14.94;58.31;101354.03;6169112;23;19997;-81
2022/12/12 19:06:06;;;;;;;5.70;5.00;;;;;;;14.89;58.16;101351.34;6197004;23;20008;-81
2022/12/12 19:08:32;;;;;;;8.02;5.55;;;;;;;14.87;57.97;101359.97;6192551;23;20028;-81